Aérodrome :
LOGIN :

S'inscrire | Disclaimer

   EN    FR    IT 

 










Légende :    VFR   VFR Marginal   IFR   IFR Intensif   IFR Très Intensif
Visi : 
Plafond : 
>= 8 km
>= 3000ft
5 à 8 km
1000 à 3000 ft
1500m à 5 km
500 à 1000 ft
800 à 1500m
200 à 500 ft
< 800m
< 200 ft
Symboles :   Orages  Brouillard  Fortes neiges  Fortes précipitations  Vent > 20 kt
SIGMETs :   Divers  Orages  Givrage  Turbulence  Onde Orograph.  Cendres Volcan.







- Altitude de l'aérodrome : 72 ft
- Code IATA : UDE


EHVK - Volkel Airbase

DERNIER METAR :
  • 231155Z AUTO 08013KT 040V100 9999 FEW380 14/04 Q1016 BLU 10010KT 9999 FEW035 SCT230

METARs EXPIRÉS :
  • 231125Z AUTO 08014KT 060V130 9999 NCD 13/04 Q1016 BLU 10010KT 9999 FEW035 SCT230
  • 231055Z AUTO 09013KT 050V130 9999 FEW360 12/03 Q1016 BLU 10010KT 9999 FEW035 SCT230
  • 231025Z AUTO 10012KT 060V140 9999 FEW035 12/04 Q1016 BLU 10010KT 9999 FEW035 SCT230
  • 231001Z AUTO 09011KT 050V120 9999 FEW032 12/04 Q1016 BLU 10010KT 9999 FEW035 SCT230
  • 230955Z AUTO 10011KT 050V140 9999 FEW032 BKN390 11/04 Q1016 BLU 10010KT 9999 FEW028 SCT230
  • 230939Z AUTO 10010KT 060V130 9999 NCD 11/04 Q1016 BLU 10010KT 9999 FEW028 SCT230
  • 230925Z AUTO 11009KT 060V120 9999 FEW360 11/05 Q1016 BLU 09010KT 9999 FEW040

TAF TAF EHVK
Valide du 23 à 10h jusqu'au 23 à 22h UTC


230946Z 2310/2322 09012KT 9999 FEW035
Pas de NOTAMs connus pour ce terrain.



MET'MAP, la Météo Aéronautique d'un coup d'oeil ! - Copyright ORBIFLY Décembre 2007 - Disclaimer

ORBIFLY MET'MAP TEAM :

Programmation & Développement : Alexandra Zaïnal
Conception & Développement : Baudouin d'Aumeries
Co-Programmation & Développement : Marc-Olivier Méhu
Soutien technique & logistique : Manuel Goepfert

Contact : metmap@orbifly.com




SOURCES & CREDITS :

   NOAA